地図

経路データ

SID SEASON NUMBER BASIN SUBBASIN NAME ISO_TIME NATURE LAT LON WMO_WIND WMO_PRES WMO_AGENCY TRACK_TYPE DIST2LAND LANDFALL IFLAG USA_AGENCY USA_ATCF_ID USA_LAT USA_LON USA_RECORD USA_STATUS USA_WIND USA_PRES USA_SSHS USA_R34_NE USA_R34_SE USA_R34_SW USA_R34_NW USA_R50_NE USA_R50_SE USA_R50_SW USA_R50_NW USA_R64_NE USA_R64_SE USA_R64_SW USA_R64_NW USA_POCI USA_ROCI USA_RMW USA_EYE TOKYO_LAT TOKYO_LON TOKYO_GRADE TOKYO_WIND TOKYO_PRES TOKYO_R50_DIR TOKYO_R50_LONG TOKYO_R50_SHORT TOKYO_R30_DIR TOKYO_R30_LONG TOKYO_R30_SHORT TOKYO_LAND CMA_LAT CMA_LON CMA_CAT CMA_WIND CMA_PRES HKO_LAT HKO_LON HKO_CAT HKO_WIND HKO_PRES NEWDELHI_LAT NEWDELHI_LON NEWDELHI_GRADE NEWDELHI_WIND NEWDELHI_PRES NEWDELHI_CI NEWDELHI_DP NEWDELHI_POCI REUNION_LAT REUNION_LON REUNION_TYPE REUNION_WIND REUNION_PRES REUNION_TNUM REUNION_CI REUNION_RMW REUNION_R34_NE REUNION_R34_SE REUNION_R34_SW REUNION_R34_NW REUNION_R50_NE REUNION_R50_SE REUNION_R50_SW REUNION_R50_NW REUNION_R64_NE REUNION_R64_SE REUNION_R64_SW REUNION_R64_NW BOM_LAT BOM_LON BOM_TYPE BOM_WIND BOM_PRES BOM_TNUM BOM_CI BOM_RMW BOM_R34_NE BOM_R34_SE BOM_R34_SW BOM_R34_NW BOM_R50_NE BOM_R50_SE BOM_R50_SW BOM_R50_NW BOM_R64_NE BOM_R64_SE BOM_R64_SW BOM_R64_NW BOM_ROCI BOM_POCI BOM_EYE BOM_POS_METHOD BOM_PRES_METHOD NADI_LAT NADI_LON NADI_CAT NADI_WIND NADI_PRES WELLINGTON_LAT WELLINGTON_LON WELLINGTON_WIND WELLINGTON_PRES DS824_LAT DS824_LON DS824_STAGE DS824_WIND DS824_PRES TD9636_LAT TD9636_LON TD9636_STAGE TD9636_WIND TD9636_PRES TD9635_LAT TD9635_LON TD9635_WIND TD9635_PRES TD9635_ROCI NEUMANN_LAT NEUMANN_LON NEUMANN_CLASS NEUMANN_WIND NEUMANN_PRES MLC_LAT MLC_LON MLC_CLASS MLC_WIND MLC_PRES USA_GUST BOM_GUST BOM_GUST_PER REUNION_GUST REUNION_GUST_PER USA_SEAHGT USA_SEARAD_NE USA_SEARAD_SE USA_SEARAD_SW USA_SEARAD_NW STORM_SPEED STORM_DIR
1997062S16158 1997 22 SP EA JUSTIN 1997-03-03 06:00:00 NR -16.2000 158.000 main 731 731 O_____________ jtwc_sh SH321997 -16.2000 158.000 25 -1 1 270
1997062S16158 1997 22 SP EA JUSTIN 1997-03-03 09:00:00 NR -16.2000 157.950 main 731 731 P_____________ SH321997 -16.2000 157.950 25 -1 1 270
1997062S16158 1997 22 SP EA JUSTIN 1997-03-03 12:00:00 NR -16.2000 157.900 main 737 737 O_____________ jtwc_sh SH321997 -16.2000 157.900 25 -1 1 270
1997062S16158 1997 22 SP EA JUSTIN 1997-03-03 15:00:00 NR -16.2000 157.850 main 737 737 P_____________ SH321997 -16.2000 157.850 25 -1 1 270
1997062S16158 1997 22 SP EA JUSTIN 1997-03-03 18:00:00 NR -16.2000 157.800 main 743 743 O_____________ jtwc_sh SH321997 -16.2000 157.800 25 -1 1 270
1997062S16158 1997 22 SP EA JUSTIN 1997-03-03 21:00:00 NR -16.2000 157.750 main 743 743 P_____________ SH321997 -16.2000 157.750 25 -1 1 270
1997062S16158 1997 22 SP EA JUSTIN 1997-03-04 00:00:00 NR -16.2000 157.700 main 749 749 O_____________ jtwc_sh SH321997 -16.2000 157.700 25 -1 1 274
1997062S16158 1997 22 SP EA JUSTIN 1997-03-04 03:00:00 NR -16.1925 157.650 main 749 749 P_____________ SH321997 -16.1925 157.650 25 -1 1 270
1997062S16158 1997 22 SP EA JUSTIN 1997-03-04 06:00:00 NR -16.2000 157.600 main 755 755 O_____________ jtwc_sh SH321997 -16.2000 157.600 25 -1 1 243
1997062S16158 1997 22 SP EA JUSTIN 1997-03-04 09:00:00 NR -16.2425 157.550 main 755 755 P_____________ SH321997 -16.2425 157.550 25 -1 1 223
1997062S16158 1997 22 SP EA JUSTIN 1997-03-04 12:00:00 NR -16.3000 157.500 main 769 769 O_____________ jtwc_sh SH321997 -16.3000 157.500 25 -1 1 225
1997062S16158 1997 22 SP EA JUSTIN 1997-03-04 15:00:00 NR -16.3425 157.443 main 772 772 P_____________ SH321997 -16.3425 157.443 25 -1 1 223
1997062S16158 1997 22 SP EA JUSTIN 1997-03-04 18:00:00 NR -16.4000 157.400 main 783 783 O_____________ jtwc_sh SH321997 -16.4000 157.400 25 -1 2 192
1997062S16158 1997 22 SP EA JUSTIN 1997-03-04 21:00:00 NR -16.4925 157.400 main 793 793 P_____________ SH321997 -16.4925 157.400 25 -1 2 172
1997062S16158 1997 22 SP EA JUSTIN 1997-03-05 00:00:00 NR -16.6000 157.400 main 804 803 O_____________ jtwc_sh SH321997 -16.6000 157.400 25 -1 2 193
1997062S16158 1997 22 SP EA JUSTIN 1997-03-05 03:00:00 NR -16.7075 157.365 main 803 803 P_____________ SH321997 -16.7075 157.365 25 -1 2 207
1997062S16158 1997 22 SP EA JUSTIN 1997-03-05 06:00:00 NR -16.8000 157.300 main 807 807 O_____________ jtwc_sh SH321997 -16.8000 157.300 25 -1 2 225
1997062S16158 1997 22 SP EA JUSTIN 1997-03-05 09:00:00 NR -16.8500 157.215 main 816 811 P_____________ SH321997 -16.8500 157.215 25 -1 2 242
1997062S16158 1997 22 SP EA JUSTIN 1997-03-05 12:00:00 NR -16.9000 157.100 main 820 820 O_____________ jtwc_sh SH321997 -16.9000 157.100 25 -1 3 235
1997062S16158 1997 22 SP EA JUSTIN 1997-03-05 15:00:00 NR -16.9999 156.988 main 824 824 P_____________ SH321997 -16.9999 156.988 25 -1 4 235
1997062S16158 1997 22 SP EA JUSTIN 1997-03-05 18:00:00 NR -17.1000 156.800 main 838 838 O_____________ jtwc_sh SH321997 -17.1000 156.800 25 -1 5 250
1997062S16158 1997 22 SP EA JUSTIN 1997-03-05 21:00:00 NR -17.1725 156.495 main 840 803 P_____________ SH321997 -17.1725 156.495 27 -1 8 261
1997062S16158 1997 22 SP EA JUSTIN 1997-03-06 00:00:00 NR -17.2167 156.000 25 998 bom main 803 775 O_____O_O_____ jtwc_sh SH321997 -17.2000 156.100 30 -1 -17.2000 155.000 20 25 998 1.50000 -17.3000 156.600 30 997 9 267
1997062S16158 1997 22 SP EA JUSTIN 1997-03-06 03:00:00 NR -17.2263 155.567 main 775 748 P_____P_P_____ SH321997 -17.1726 155.642 30 -1 -17.2100 154.823 20 27 996 -17.3501 156.162 30 997 8 270
1997062S16158 1997 22 SP EA JUSTIN 1997-03-06 06:00:00 NR -17.2200 155.170 30 995 bom main 748 720 O_____O_O_____ jtwc_sh SH321997 -17.1000 155.200 30 -1 -17.2000 154.600 20 30 995 1.50000 -17.4000 155.700 30 997 7 272
1997062S16158 1997 22 SP EA JUSTIN 1997-03-06 09:00:00 NR -17.1958 154.793 main 720 693 P_____P_P_____ SH321997 -16.9924 154.870 32 -1 -17.1575 154.307 20 35 993 -17.4375 155.200 32 996 7 277
1997062S16158 1997 22 SP EA JUSTIN 1997-03-06 12:00:00 NR -17.1333 154.433 40 992 bom main 689 663 O_____O_O_____ jtwc_sh SH321997 -16.9000 154.600 35 0 -17.1000 154.000 30 40 992 2.00000 -17.4000 154.700 35 995 7 282
1997062S16158 1997 22 SP EA JUSTIN 1997-03-06 15:00:00 NR -17.0624 154.114 main 663 643 P_____P_P_____ SH321997 -16.8924 154.350 37 0 -17.0723 153.765 30 42 991 -17.2224 154.227 37 990 6 285
1997062S16158 1997 22 SP EA JUSTIN 1997-03-06 18:00:00 TS -16.9692 153.777 45 990 bom main 643 623 O_____O_O___O_ jtwc_sh SH321997 -16.9000 154.100 40 0 -17.0000 153.500 30 45 990 2.50000 448 -17.0000 153.800 40 986 -17.0000 153.500 TC 45 990 8 289
1997062S16158 1997 22 SP EA JUSTIN 1997-03-06 21:00:00 TS -16.8162 153.371 main 623 598 P_____P_P___P_ SH321997 -16.8500 153.792 42 0 -16.8002 153.077 30 45 988 412 -16.8200 153.405 42 986 -16.7728 153.045 TC 47 988 8 292
1997062S16158 1997 22 SP EA JUSTIN 1997-03-07 00:00:00 TS -16.6800 153.020 45 987 bom main 598 590 O_____O_O___O_ jtwc_sh SH321997 -16.8000 153.500 45 0 -16.6000 152.700 30 45 987 2.50000 376 1004 -16.7000 153.100 45 986 -16.6000 152.700 TC 50 987 6 290
1997062S16158 1997 22 SP EA JUSTIN 1997-03-07 03:00:00 TS -16.6293 152.819 main 591 583 P_____P_P___P_ SH321997 -16.7924 153.278 47 0 -16.5199 152.540 30 45 984 362 -16.6849 152.920 45 985 -16.5199 152.540 TC 52 985 3 281
1997062S16158 1997 22 SP EA JUSTIN 1997-03-07 06:00:00 TS -16.6250 152.725 45 981 bom main 583 583 O_____O_O___O_ jtwc_sh SH321997 -16.8000 153.100 50 0 -16.5000 152.500 30 45 981 2.50000 349 -16.7000 152.800 45 984 -16.5000 152.500 TC 55 983 2 280
1997062S16158 1997 22 SP EA JUSTIN 1997-03-07 09:00:00 TS -16.6012 152.659 main 583 576 P_____P_P___P_ SH321997 -16.8000 152.935 50 0 -16.4774 152.530 30 45 981 335 -16.6500 152.642 45 983 -16.4774 152.530 TC 57 982 1 280
1997062S16158 1997 22 SP EA JUSTIN 1997-03-07 12:00:00 TS -16.6000 152.575 45 981 bom main 576 561 O_____O_O___O_ jtwc_sh SH321997 -16.8000 152.800 50 0 -16.5000 152.500 30 45 981 2.50000 322 -16.6000 152.500 45 982 -16.5000 152.500 TC 60 981 3 261
1997062S16158 1997 22 SP EA JUSTIN 1997-03-07 15:00:00 TS -16.6463 152.375 main 561 539 P_____P_P___P_ SH321997 -16.7925 152.700 50 0 -16.6002 152.200 30 48 979 322 -16.5925 152.400 47 983 -16.6002 152.200 TC 62 979 4 255
1997062S16158 1997 22 SP EA JUSTIN 1997-03-07 18:00:00 TS -16.7000 152.175 51 977 bom main 539 532 O_____O_O___O_ jtwc_sh SH321997 -16.8000 152.600 50 0 -16.7000 151.900 30 51 977 2.50000 322 -16.6000 152.300 50 985 -16.7000 151.900 TC 65 977 3 260
1997062S16158 1997 22 SP EA JUSTIN 1997-03-07 21:00:00 TS -16.6993 152.064 main 532 525 P_____P_P___P_ SH321997 -16.8425 152.450 50 0 -16.6924 151.855 30 51 978 335 -16.5700 152.098 52 982 -16.6924 151.855 TC 62 978 1 260
1997062S16158 1997 22 SP EA JUSTIN 1997-03-08 00:00:00 TS -16.7250 152.025 51 980 bom main 525 516 O_____O_O___O_ jtwc_sh SH321997 -16.9000 152.300 50 0 -16.7000 151.900 30 51 980 2.50000 349 -16.6000 152.000 55 980 -16.7000 151.900 TC 60 980 1 182
1997062S16158 1997 22 SP EA JUSTIN 1997-03-08 03:00:00 TS -16.8419 152.064 main 523 507 P_____P_P___P_ SH321997 -16.9500 152.193 50 0 -16.8275 151.900 30 51 979 368 -16.7627 152.265 55 980 -16.8275 151.900 TC 62 979 3 167
1997062S16158 1997 22 SP EA JUSTIN 1997-03-08 06:00:00 TS -17.0000 152.100 51 978 bom main 507 490 O_____O_O___O_ jtwc_sh SH321997 -17.0000 152.100 50 0 -17.0000 151.900 30 51 978 2.50000 388 -17.0000 152.500 55 980 -17.0000 151.900 TC 65 978 3 184
1997062S16158 1997 22 SP EA JUSTIN 1997-03-08 09:00:00 TS -17.1743 152.058 main 490 468 P_____P_P___P_ SH321997 -17.0575 152.000 50 0 -17.1799 151.945 30 51 977 409 -17.2800 152.340 57 977 -17.1799 151.945 TC 65 977 3 209
1997062S16158 1997 22 SP EA JUSTIN 1997-03-08 12:00:00 TS -17.3000 151.925 51 976 bom main 468 453 O_____O_O___O_ jtwc_sh SH321997 -17.1000 151.900 50 0 -17.3000 151.900 30 51 976 2.50000 430 -17.5000 152.000 60 975 -17.3000 151.900 TC 65 976 4 253
1997062S16158 1997 22 SP EA JUSTIN 1997-03-08 15:00:00 TS -17.2883 151.659 main 453 433 P_____P_P___P_ SH321997 -17.1150 151.792 50 0 -17.2502 151.607 30 53 975 395 -17.5377 151.627 60 975 -17.2502 151.607 TC 67 975 5 276
1997062S16158 1997 22 SP EA JUSTIN 1997-03-08 18:00:00 TS -17.2500 151.400 55 975 bom main 441 426 O_____O_O___O_ jtwc_sh SH321997 -17.1000 151.700 50 0 -17.2000 151.300 30 55 975 2.50000 361 -17.5000 151.300 60 975 -17.2000 151.300 TC 70 975 3 265
1997062S16158 1997 22 SP EA JUSTIN 1997-03-08 21:00:00 TS -17.3205 151.301 main 426 417 P_____P_P___P_ SH321997 -17.0575 151.643 50 0 -17.3574 151.205 30 57 974 358 -17.5097 151.152 60 975 -17.3574 151.205 TC 70 974 2 224
1997062S16158 1997 22 SP EA JUSTIN 1997-03-09 00:00:00 TS -17.3750 151.275 60 974 bom main 417 417 O_____O_O___O_ jtwc_sh SH321997 -17.0000 151.600 50 0 -17.5000 151.200 30 60 974 2.50000 355 1004 -17.5000 151.100 60 975 -17.5000 151.200 TC 70 974 1 272
1997062S16158 1997 22 SP EA JUSTIN 1997-03-09 03:00:00 TS -17.3189 151.240 main 420 420 P_____P_P___P_ SH321997 -16.9500 151.550 52 0 -17.4450 151.185 30 60 974 379 -17.4358 151.039 60 975 -17.4450 151.185 TC 70 974 2 345
1997062S16158 1997 22 SP EA JUSTIN 1997-03-09 06:00:00 TS -17.2085 151.226 60 975 bom main 429 429 O_____O_P___O_ jtwc_sh SH321997 -16.9000 151.500 55 0 -17.3000 151.200 30 60 975 2.50000 403 -17.3341 151.006 60 975 -17.3000 151.200 TC 70 975 2 354
1997062S16158 1997 22 SP EA JUSTIN 1997-03-09 09:00:00 TS -17.0895 151.231 main 438 438 P_____P_P___P_ SH321997 -16.8425 151.442 55 0 -17.1500 151.243 30 60 975 389 -17.2153 150.995 60 975 -17.1500 151.243 TC 70 975 2 4
1997062S16158 1997 22 SP EA JUSTIN 1997-03-09 12:00:00 TS -16.9750 151.250 60 975 bom main 453 453 O_____O_O___O_ jtwc_sh SH321997 -16.8000 151.400 55 0 -17.0000 151.300 30 60 975 2.50000 376 -17.1000 151.000 60 975 -17.0000 151.300 TC 70 975 2 8
1997062S16158 1997 22 SP EA JUSTIN 1997-03-09 15:00:00 TS -16.8977 151.275 main 462 462 P_____P_P___P_ SH321997 -16.7925 151.393 55 0 -16.8925 151.350 30 60 975 395 -17.0135 151.007 60 975 -16.8925 151.350 TC 67 975 2 23
1997062S16158 1997 22 SP EA JUSTIN 1997-03-09 18:00:00 TS -16.8336 151.307 60 976 bom main 471 471 O_____O_P___O_ jtwc_sh SH321997 -16.8000 151.400 55 0 -16.8000 151.400 30 60 976 2.50000 415 -16.9345 151.029 60 975 -16.8000 151.400 TC 65 976 2 22
1997062S16158 1997 22 SP EA JUSTIN 1997-03-09 21:00:00 TS -16.7602 151.340 main 471 471 P_____P_P___P_ SH321997 -16.8075 151.400 55 0 -16.6850 151.450 30 60 976 431 -16.8633 151.061 60 975 -16.6850 151.450 TC 65 976 1 25
1997062S16158 1997 22 SP EA JUSTIN 1997-03-10 00:00:00 TS -16.7000 151.375 60 977 bom main 487 487 O_____O_O___O_ jtwc_sh SH321997 -16.8000 151.400 55 0 -16.6000 151.500 30 60 977 3.00000 448 1006 -16.8000 151.100 60 975 -16.6000 151.500 TC 65 977 1 33
1997062S16158 1997 22 SP EA JUSTIN 1997-03-10 03:00:00 TS -16.6606 151.410 main 487 487 P_____P_P___P_ SH321997 -16.7500 151.400 55 0 -16.5775 151.550 30 60 977 425 -16.7375 151.139 -16.5775 151.550 TC 65 977 1 52
1997062S16158 1997 22 SP EA JUSTIN 1997-03-10 06:00:00 TS -16.6455 151.446 60 978 bom main 496 493 O_____O_P___O_ jtwc_sh SH321997 -16.7000 151.400 55 0 -16.6000 151.600 30 60 978 3.00000 403 -16.6820 151.184 -16.6000 151.600 TC 65 978 1 87
1997062S16158 1997 22 SP EA JUSTIN 1997-03-10 09:00:00 TS -16.6565 151.483 main 493 493 P_____P_P___P_ SH321997 -16.6925 151.400 55 0 -16.6500 151.650 30 60 979 376 -16.6335 151.234 -16.6500 151.650 TC 62 979 1 114
1997062S16158 1997 22 SP EA JUSTIN 1997-03-10 12:00:00 TS -16.6730 151.522 60 980 bom main 493 493 O_____O_P___O_ jtwc_sh SH321997 -16.7000 151.400 55 0 -16.7000 151.700 30 60 980 3.00000 349 -16.5921 151.286 -16.7000 151.700 TC 60 980 1 99
1997062S16158 1997 22 SP EA JUSTIN 1997-03-10 15:00:00 TS -16.6682 151.564 main 499 499 P_____P_P___P_ SH321997 -16.7000 151.400 55 0 -16.7075 151.758 30 60 980 416 -16.5579 151.341 -16.7075 151.758 TC 60 980 1 79
1997062S16158 1997 22 SP EA JUSTIN 1997-03-10 18:00:00 TS -16.6578 151.599 60 980 bom main 499 499 O_____O_P___O_ jtwc_sh SH321997 -16.7000 151.400 55 0 -16.7000 151.800 30 60 980 3.00000 484 -16.5311 151.396 -16.7000 151.800 TC 60 980 0 76
1997062S16158 1997 22 SP EA JUSTIN 1997-03-10 21:00:00 TS -16.6586 151.612 main 499 499 P_____P_P___P_ SH321997 -16.7075 151.400 55 0 -16.7075 151.800 30 55 980 443 -16.5118 151.449 -16.7075 151.800 TC 60 980 0 0
1997062S16158 1997 22 SP EA JUSTIN 1997-03-11 00:00:00 TS -16.6500 151.625 51 980 bom main 508 499 O_____O_O___O_ jtwc_sh SH321997 -16.7000 151.400 55 0 -16.7000 151.800 30 51 980 3.00000 403 -16.5000 151.500 55 980 -16.7000 151.800 TC 60 980 1 46
1997062S16158 1997 22 SP EA JUSTIN 1997-03-11 03:00:00 TS -16.6195 151.662 main 514 514 P_____P_P___P_ SH321997 -16.6500 151.400 55 0 -16.6575 151.850 30 51 981 443 -16.5129 151.550 -16.6575 151.850 TC 60 981 1 47
1997062S16158 1997 22 SP EA JUSTIN 1997-03-11 06:00:00 TS -16.5841 151.700 51 982 bom main 514 514 O_____O_P___O_ jtwc_sh SH321997 -16.6000 151.400 55 0 -16.6000 151.900 30 51 982 3.00000 484 -16.5365 151.598 -16.6000 151.900 TC 60 982 1 46
1997062S16158 1997 22 SP EA JUSTIN 1997-03-11 09:00:00 TS -16.5720 151.719 main 514 514 P_____P_P___P_ SH321997 -16.5925 151.400 55 0 -16.5650 151.915 30 51 983 443 -16.5655 151.645 -16.5650 151.915 TC 57 983 0 26
1997062S16158 1997 22 SP EA JUSTIN 1997-03-11 12:00:00 TS -16.5486 151.722 51 984 bom main 523 523 O_____O_P___O_ jtwc_sh SH321997 -16.6000 151.400 55 0 -16.5000 151.900 30 51 984 3.00000 403 -16.5943 151.687 -16.5000 151.900 TC 55 984 1 0
1997062S16158 1997 22 SP EA JUSTIN 1997-03-11 15:00:00 TS -16.4813 151.704 main 523 523 P_____P_P___P_ SH321997 -16.6075 151.392 52 0 -16.3500 151.850 30 51 984 335 -16.6176 151.725 -16.3500 151.850 TC 55 984 1 342
1997062S16158 1997 22 SP EA JUSTIN 1997-03-11 18:00:00 TS -16.4075 151.689 51 985 bom main 532 532 O_____O_P___O_ jtwc_sh SH321997 -16.6000 151.400 50 0 -16.2000 151.800 30 51 985 3.00000 268 -16.6300 151.758 -16.2000 151.800 TC 55 985 1 0
1997062S16158 1997 22 SP EA JUSTIN 1997-03-11 21:00:00 TS -16.3615 151.705 main 532 532 P_____P_P___P_ SH321997 -16.5650 151.450 47 0 -16.1275 151.793 30 48 986 254 -16.6259 151.783 -16.1275 151.793 TC 52 986 1 21
1997062S16158 1997 22 SP EA JUSTIN 1997-03-12 00:00:00 TS -16.3250 151.725 45 987 bom main 542 542 O_____O_O___O_ jtwc_sh SH321997 -16.5000 151.500 45 0 -16.1000 151.800 30 45 987 3.00000 241 -16.6000 151.800 50 985 -16.1000 151.800 TC 50 987 1 0
1997062S16158 1997 22 SP EA JUSTIN 1997-03-12 03:00:00 TS -16.3050 151.728 main 542 542 P_____P_P___P_ SH321997 -16.4300 151.507 45 0 -16.1150 151.792 30 40 988 241 -16.5601 151.821 47 986 -16.1150 151.792 TC 47 988 1 18
1997062S16158 1997 22 SP EA JUSTIN 1997-03-12 06:00:00 TS -16.2499 151.733 35 990 bom main 551 551 O_____O_P___O_ jtwc_sh SH321997 -16.3000 151.500 45 0 -16.1000 151.800 30 35 990 3.00000 241 -16.4997 151.832 45 987 -16.1000 151.800 TC 45 990 2 4
1997062S16158 1997 22 SP EA JUSTIN 1997-03-12 09:00:00 TS -16.1117 151.745 main 560 560 P_____P_P___P_ SH321997 -16.0875 151.470 45 0 -15.9725 151.843 30 37 990 227 -16.4144 151.827 42 988 -15.9725 151.843 TC 45 990 3 5
1997062S16158 1997 22 SP EA JUSTIN 1997-03-12 12:00:00 TS -15.9250 151.775 40 990 bom main 585 580 O_____O_O___O_ jtwc_sh SH321997 -15.8000 151.500 45 0 -15.8000 151.900 30 40 990 3.00000 214 -16.3000 151.800 40 990 -15.8000 151.900 TC 45 990 4 10
1997062S16158 1997 22 SP EA JUSTIN 1997-03-12 15:00:00 TS -15.7206 151.817 main 580 561 P_____P_P___P_ SH321997 -15.4275 151.655 45 0 -15.6425 151.942 30 40 990 214 -16.1700 151.726 38 991 -15.6425 151.942 TC 45 990 4 15
1997062S16158 1997 22 SP EA JUSTIN 1997-03-12 18:00:00 TS -15.5275 151.884 40 990 bom main 561 550 O_____O_P___O_ jtwc_sh SH321997 -15.1000 151.900 45 0 -15.5000 152.000 30 40 990 2.50000 214 -16.0100 151.635 37 992 -15.5000 152.000 TC 45 990 4 27
1997062S16158 1997 22 SP EA JUSTIN 1997-03-12 21:00:00 TS -15.3994 151.984 main 554 543 P_____P_P___P_ SH321997 -14.9626 152.215 45 0 -15.4075 152.085 30 37 990 187 -15.8200 151.551 36 993 -15.4075 152.085 TC 45 990 3 40
1997062S16158 1997 22 SP EA JUSTIN 1997-03-13 00:00:00 TS -15.2750 152.100 35 990 bom main 547 529 O_____O_O___O_ jtwc_sh SH321997 -14.9000 152.500 45 0 -15.3000 152.200 30 35 990 2.50000 160 1006 -15.6000 151.500 35 995 -15.3000 152.200 TC 45 990 4 39
1997062S16158 1997 22 SP EA JUSTIN 1997-03-13 03:00:00 TS -15.1062 152.229 main 529 511 P_____P_P___P_ SH321997 -14.7999 152.645 42 0 -15.1375 152.380 30 35 987 146 -15.3497 151.510 33 995 -15.1375 152.380 TC 50 987 4 28
1997062S16158 1997 22 SP EA JUSTIN 1997-03-13 06:00:00 TS -14.8931 152.314 35 985 bom main 511 480 O_____O_P___O_ jtwc_sh SH321997 -14.7000 152.700 40 0 -14.9000 152.500 30 35 985 2.50000 133 -15.0725 151.555 32 996 -14.9000 152.500 TC 55 985 5 9
1997062S16158 1997 22 SP EA JUSTIN 1997-03-13 09:00:00 TS -14.6304 152.299 main 480 459 P_____P_P___P_ SH321997 -14.6075 152.715 40 0 -14.5650 152.430 30 35 985 133 -14.7841 151.623 31 996 -14.5650 152.430 TC 55 985 6 355
1997062S16158 1997 22 SP EA JUSTIN 1997-03-13 12:00:00 TS -14.3500 152.250 35 985 bom main 449 424 O_____O_O___O_ jtwc_sh SH321997 -14.5000 152.700 40 0 -14.2000 152.300 30 35 985 2.50000 133 -14.5000 151.700 30 997 -14.2000 152.300 TC 55 985 5 353
1997062S16158 1997 22 SP EA JUSTIN 1997-03-13 15:00:00 TS -14.1038 152.225 main 424 403 P_____P_P___P_ SH321997 -14.3650 152.700 40 0 -13.8925 152.235 30 37 985 139 -14.2652 151.729 32 995 -13.8925 152.235 TC 55 985 5 356
1997062S16158 1997 22 SP EA JUSTIN 1997-03-13 18:00:00 TS -13.8585 152.218 40 985 bom main 403 373 O_____O_P___O_ jtwc_sh SH321997 -14.2000 152.700 40 0 -13.6000 152.200 30 40 985 3.00000 145 -14.0339 151.771 35 993 -13.6000 152.200 TC 55 985 5 359
1997062S16158 1997 22 SP EA JUSTIN 1997-03-13 21:00:00 TS -13.5927 152.217 main 373 348 P_____P_P___P_ SH321997 -14.0150 152.692 37 0 -13.2850 152.162 30 42 982 139 -13.7857 151.853 37 991 -13.2850 152.162 TC 57 982 5 6
1997062S16158 1997 22 SP EA JUSTIN 1997-03-14 00:00:00 TS -13.3250 152.275 45 980 bom main 348 335 O_____O_O___O_ jtwc_sh SH321997 -13.8000 152.700 35 0 -13.0000 152.200 30 45 980 3.00000 133 1006 -13.5000 152.000 40 990 -13.0000 152.200 TC 60 980 6 20
1997062S16158 1997 22 SP EA JUSTIN 1997-03-14 03:00:00 TS -13.0519 152.418 main 335 321 P_____P_P___P_ SH321997 -13.5500 152.727 35 0 -12.7775 152.355 30 45 980 133 -13.1028 152.233 40 990 -12.7775 152.355 TC 60 980 6 34
1997062S16158 1997 22 SP EA JUSTIN 1997-03-14 06:00:00 TS -12.8250 152.625 45 980 bom main 321 320 O_____O_O___O_ jtwc_sh SH321997 -13.3000 152.800 35 0 -12.6000 152.600 30 45 980 3.00000 133 -12.8000 152.500 40 990 -12.6000 152.600 TC 60 980 6 50
1997062S16158 1997 22 SP EA JUSTIN 1997-03-14 09:00:00 TS -12.6801 152.866 main 335 328 P_____P_P___P_ SH321997 -13.0925 152.920 40 0 -12.4425 152.892 30 45 980 173 -12.7429 152.760 40 990 -12.4425 152.892 TC 60 980 5 63
1997062S16158 1997 22 SP EA JUSTIN 1997-03-14 12:00:00 TS -12.5750 153.125 45 980 bom main 344 344 O_____O_O___O_ jtwc_sh SH321997 -12.9000 153.100 45 0 -12.3000 153.200 30 45 980 3.00000 214 -12.8000 153.000 40 990 -12.3000 153.200 TC 60 980 5 65
1997062S16158 1997 22 SP EA JUSTIN 1997-03-14 15:00:00 TS -12.4667 153.340 main 354 354 P_____P_P___P_ SH321997 -12.6925 153.335 45 0 -12.1500 153.457 30 45 980 173 -12.8746 153.112 40 990 -12.1500 153.457 TC 60 980 5 63
1997062S16158 1997 22 SP EA JUSTIN 1997-03-14 18:00:00 TS -12.3623 153.547 45 980 bom main 365 365 O_____O_P___O_ jtwc_sh SH321997 -12.5000 153.600 45 0 -12.0000 153.700 30 45 980 3.00000 133 -12.9493 153.187 40 990 -12.0000 153.700 TC 60 980 5 63
1997062S16158 1997 22 SP EA JUSTIN 1997-03-14 21:00:00 TS -12.2517 153.767 main 387 382 P_____P_P___P_ SH321997 -12.3424 153.835 45 0 -11.8575 153.957 30 47 980 133 -12.9494 153.318 40 990 -11.8575 153.957 TC 60 980 5 61
1997062S16158 1997 22 SP EA JUSTIN 1997-03-15 00:00:00 TS -12.1000 154.025 50 980 bom main 397 397 O_____O_O___O_ jtwc_sh SH321997 -12.2000 154.100 45 0 -11.7000 154.200 30 50 980 3.50000 133 1006 -12.8000 153.600 40 990 -11.7000 154.200 TC 60 980 7 55
1997062S16158 1997 22 SP EA JUSTIN 1997-03-15 03:00:00 TS -11.8483 154.351 main 425 425 P_____P_P___P_ SH321997 -12.0276 154.450 47 0 -11.4550 154.400 30 50 980 146 -12.4558 154.152 40 990 -11.4550 154.400 TC 60 980 8 53
1997062S16158 1997 22 SP EA JUSTIN 1997-03-15 06:00:00 TS -11.6250 154.675 50 980 bom main 450 438 O_____O_O___O_ jtwc_sh SH321997 -11.9000 154.800 50 0 -11.3000 154.600 30 50 980 3.50000 160 -12.0000 154.700 40 990 -11.3000 154.600 TC 60 980 7 61
1997062S16158 1997 22 SP EA JUSTIN 1997-03-15 09:00:00 TS -11.5243 154.941 main 438 420 P_____P_P___P_ SH321997 -11.8775 155.080 52 0 -11.3974 154.812 30 50 980 179 -11.4248 155.030 40 990 -11.3975 154.842 TC 60 980 5 79
1997062S16158 1997 22 SP EA JUSTIN 1997-03-15 12:00:00 TS -11.5250 155.200 50 980 bom main 420 409 O_____O_O___O_ jtwc_sh SH321997 -11.9000 155.300 55 0 -11.6000 155.100 30 50 980 3.50000 199 -11.0000 155.300 40 990 -11.6000 155.100 TC 60 980 6 97
1997062S16158 1997 22 SP EA JUSTIN 1997-03-15 15:00:00 TS -11.5932 155.532 main 413 404 P_____P_P___P_ SH321997 -11.8925 155.473 60 0 -11.7503 155.587 30 50 980 196 -10.9801 155.710 40 990 -11.7500 155.358 TC 60 980 6 109
1997062S16158 1997 22 SP EA JUSTIN 1997-03-15 18:00:00 TS -11.7250 155.800 50 980 bom main 410 410 O_____O_O___O_ jtwc_sh SH321997 -11.9000 155.600 65 1 -11.9000 156.000 30 50 980 3.50000 193 -11.2000 156.000 40 990 -11.9000 155.600 TC 60 980 5 129
1997062S16158 1997 22 SP EA JUSTIN 1997-03-15 21:00:00 TS -11.8880 155.898 main 424 424 P_____P_P___P_ SH321997 -11.9425 155.708 65 1 -12.0649 156.075 30 50 980 230 -11.4796 155.966 42 988 -12.0650 155.845 TC 60 980 3 164
1997062S16158 1997 22 SP EA JUSTIN 1997-03-16 00:00:00 TS -12.0500 155.900 50 980 bom main 433 433 O_____O_O___O_ jtwc_sh SH321997 -12.0000 155.800 65 1 -12.2000 156.000 30 50 980 3.50000 268 1008 -11.8000 155.800 45 987 -12.2000 156.000 TC 60 980 3 0
1997062S16158 1997 22 SP EA JUSTIN 1997-03-16 03:00:00 TS -12.1390 155.897 main 443 443 P_____P_P___P_ SH321997 -12.0425 155.908 65 1 -12.2575 155.950 30 52 977 295 -11.9984 155.751 46 986 -12.2575 155.980 TC 65 977 2 185
1997062S16158 1997 22 SP EA JUSTIN 1997-03-16 06:00:00 TS -12.2125 155.883 55 975 bom main 453 453 O_____O_P___O_ jtwc_sh SH321997 -12.1000 156.000 65 1 -12.3000 155.900 30 55 975 3.50000 322 -12.1500 155.731 47 986 -12.3000 155.900 TC 70 975 2 174
1997062S16158 1997 22 SP EA JUSTIN 1997-03-16 09:00:00 TS -12.3104 155.904 main 463 463 P_____P_P___P_ SH321997 -12.2000 156.080 67 1 -12.3700 155.907 30 57 972 281 -12.3015 155.720 48 985 -12.3700 155.907 TC 72 972 2 0
1997062S16158 1997 22 SP EA JUSTIN 1997-03-16 12:00:00 TS -12.4500 155.900 60 970 bom main 473 483 O_____O_O___O_ jtwc_sh SH321997 -12.3000 156.100 70 1 -12.5000 155.900 30 60 970 4.00000 241 -12.5000 155.700 50 985 -12.5000 155.900 TC 75 970 4 191
1997062S16158 1997 22 SP EA JUSTIN 1997-03-16 15:00:00 TS -12.7136 155.826 main 508 508 P_____P_P___P_ SH321997 -12.3650 156.023 72 1 -12.8100 155.815 30 62 970 274 -12.8693 155.653 57 977 -12.8100 155.815 TC 75 970 5 202
1997062S16158 1997 22 SP EA JUSTIN 1997-03-16 18:00:00 TS -12.8750 155.725 65 970 bom main 533 518 O_____O_O___O_ jtwc_sh SH321997 -12.4000 155.900 75 1 -13.0000 155.700 40 65 970 4.50000 307 -13.1000 155.600 65 970 -13.0000 155.700 TC 75 970 2 271
1997062S16158 1997 22 SP EA JUSTIN 1997-03-16 21:00:00 TS -12.7117 155.629 main 518 498 P_____P_P___P_ SH321997 -12.4150 155.800 72 1 -12.7300 155.585 40 65 967 314 -12.9717 155.545 65 970 -12.7300 155.585 TC 77 967 4 337
1997062S16158 1997 22 SP EA JUSTIN 1997-03-17 00:00:00 TS -12.4750 155.550 65 965 bom main 498 494 O_____O_O___O_ jtwc_sh SH321997 -12.4000 155.700 70 1 -12.4000 155.500 40 65 965 4.50000 322 1010 -12.7000 155.500 65 970 -12.4000 155.500 TC 80 965 3 342
1997062S16158 1997 22 SP EA JUSTIN 1997-03-17 03:00:00 TS -12.4133 155.526 main 494 494 P_____P_P___P_ SH321997 -12.3575 155.592 70 1 -12.3675 155.515 40 65 962 322 -12.5608 155.480 66 968 -12.3675 155.515 TC 82 962 1 301
1997062S16158 1997 22 SP EA JUSTIN 1997-03-17 06:00:00 TS -12.4398 155.495 65 960 bom main 494 494 O_____O_P___O_ jtwc_sh SH321997 -12.3000 155.500 70 1 -12.5000 155.500 40 65 960 4.50000 322 -12.4591 155.480 67 967 -12.5000 155.500 TC 85 960 2 220
1997062S16158 1997 22 SP EA JUSTIN 1997-03-17 09:00:00 TS -12.5639 155.392 main 519 519 P_____P_P___P_ SH321997 -12.2575 155.435 72 1 -12.8100 155.323 40 67 957 295 -12.3778 155.489 68 966 -12.8100 155.323 TC 90 957 3 229
1997062S16158 1997 22 SP EA JUSTIN 1997-03-17 12:00:00 TS -12.6250 155.275 70 955 bom main 524 508 O_____O_O___O_ jtwc_sh SH321997 -12.2000 155.400 75 1 -13.0000 155.100 40 70 955 4.50000 268 -12.3000 155.500 70 965 -13.0000 155.100 TC 95 955 3 303
1997062S16158 1997 22 SP EA JUSTIN 1997-03-17 15:00:00 TS -12.4254 155.169 main 508 493 P_____P_P___P_ SH321997 -12.1000 155.393 82 1 -12.7175 154.875 40 75 955 257 -12.1667 155.533 72 962 -12.7175 154.875 TC 95 955 5 344
1997062S16158 1997 22 SP EA JUSTIN 1997-03-17 18:00:00 TS -12.1596 155.140 80 955 bom main 493 463 O_____O_P___O_ jtwc_sh SH321997 -12.0000 155.400 90 2 -12.3000 154.800 40 80 955 5.00000 247 -12.0386 155.561 75 960 -12.3000 154.800 TC 95 955 5 16
1997062S16158 1997 22 SP EA JUSTIN 1997-03-17 21:00:00 TS -11.9929 155.288 main 463 448 P_____P_P___P_ SH321997 -11.9350 155.408 90 2 -12.0477 155.093 40 80 955 257 -11.9412 155.559 77 957 -12.0477 155.093 TC 95 955 4 47
1997062S16158 1997 22 SP EA JUSTIN 1997-03-18 00:00:00 TS -11.9000 155.425 80 955 bom main 448 448 O_____O_O___O_ jtwc_sh SH321997 -11.9000 155.400 90 2 -11.9000 155.400 40 80 955 5.00000 268 1010 -11.9000 155.500 80 955 -11.9000 155.400 TC 95 955 1 40
1997062S16158 1997 22 SP EA JUSTIN 1997-03-18 03:00:00 TS -11.8883 155.381 main 448 448 P_____P_P___P_ SH321997 -11.8850 155.387 90 2 -11.8624 155.382 40 80 955 295 -11.9435 155.373 80 955 -11.8624 155.382 TC 95 955 2 263
1997062S16158 1997 22 SP EA JUSTIN 1997-03-18 06:00:00 TS -11.9250 155.225 80 955 bom main 458 458 O_____O_O___O_ jtwc_sh SH321997 -11.9000 155.300 90 2 -11.9000 155.200 40 80 955 5.00000 322 -12.0000 155.200 80 955 -11.9000 155.200 TC 95 955 4 260
1997062S16158 1997 22 SP EA JUSTIN 1997-03-18 09:00:00 TS -11.9513 155.008 main 479 474 P_____P_P___P_ SH321997 -11.9425 155.080 90 2 -11.9350 154.965 40 80 955 301 -11.9925 155.022 80 955 -11.9350 154.965 TC 95 955 5 261
1997062S16158 1997 22 SP EA JUSTIN 1997-03-18 12:00:00 TS -12.0000 154.750 80 955 bom main 474 447 O_____O_O___O_ jtwc_sh SH321997 -12.0000 154.800 90 2 -12.0000 154.700 40 80 955 5.00000 280 -12.0000 154.800 80 955 -12.0000 154.700 TC 95 955 5 255
1997062S16158 1997 22 SP EA JUSTIN 1997-03-18 15:00:00 TS -12.0800 154.514 main 447 427 P_____P_P___P_ SH321997 -12.0500 154.557 90 2 -12.0925 154.485 40 80 957 301 -12.0850 154.530 80 955 -12.0925 154.485 TC 90 957 5 249
1997062S16158 1997 22 SP EA JUSTIN 1997-03-18 18:00:00 TS -12.1750 154.275 80 960 bom main 431 407 O_____O_O___O_ jtwc_sh SH321997 -12.1000 154.300 90 2 -12.2000 154.300 40 80 960 5.00000 322 -12.2000 154.200 80 955 -12.2000 154.300 TC 85 960 5 249
1997062S16158 1997 22 SP EA JUSTIN 1997-03-18 21:00:00 TS -12.2606 154.023 main 407 387 P_____P_P___P_ SH321997 -12.1350 154.000 90 2 -12.3075 154.150 40 80 962 322 -12.2926 153.792 80 955 -12.3075 154.150 TC 82 962 5 250
1997062S16158 1997 22 SP EA JUSTIN 1997-03-19 00:00:00 TS -12.3500 153.775 80 965 bom main 387 374 O_____O_O___O_ jtwc_sh SH321997 -12.2000 153.700 90 2 -12.4000 154.000 40 80 965 5.00000 322 1012 -12.4000 153.400 80 955 -12.4000 154.000 TC 80 965 5 250
1997062S16158 1997 22 SP EA JUSTIN 1997-03-19 03:00:00 TS -12.4237 153.561 main 374 354 P_____P_P___P_ SH321997 -12.3275 153.442 87 2 -12.4199 153.845 40 75 967 322 -12.5274 153.112 80 955 -12.4199 153.845 TC 77 967 5 246
1997062S16158 1997 22 SP EA JUSTIN 1997-03-19 06:00:00 TS -12.5500 153.325 70 970 bom main 354 351 O_____O_O___O_ jtwc_sh SH321997 -12.5000 153.200 85 2 -12.5000 153.600 40 70 970 4.50000 322 -12.7000 152.900 80 955 -12.5000 153.600 TC 75 970 7 236
1997062S16158 1997 22 SP EA JUSTIN 1997-03-19 09:00:00 TS -12.7901 153.009 main 351 344 P_____P_P___P_ SH321997 -12.6775 152.957 80 1 -12.7702 153.165 40 65 975 295 -12.9424 152.750 72 962 -12.7702 153.165 TC 67 975 8 230
1997062S16158 1997 22 SP EA JUSTIN 1997-03-19 12:00:00 TS -13.0750 152.675 60 980 bom main 354 348 O_____O_O___O_ jtwc_sh SH321997 -12.9000 152.700 75 1 -13.1000 152.700 30 60 980 4.00000 268 -13.2000 152.600 65 970 -13.1000 152.700 TC 60 980 8 228
1997062S16158 1997 22 SP EA JUSTIN 1997-03-19 15:00:00 TS -13.3249 152.389 main 354 353 P_____P_P___P_ SH321997 -13.1850 152.415 70 1 -13.3573 152.385 30 57 980 268 -13.4000 152.372 62 972 -13.3573 152.385 TC 60 980 8 228
1997062S16158 1997 22 SP EA JUSTIN 1997-03-19 18:00:00 TS -13.5750 152.100 55 980 bom main 368 364 O_____O_O___O_ jtwc_sh SH321997 -13.5000 152.100 65 1 -13.6000 152.100 30 55 980 3.50000 268 -13.6000 152.100 60 975 -13.6000 152.100 TC 60 980 8 229
1997062S16158 1997 22 SP EA JUSTIN 1997-03-19 21:00:00 TS -13.8374 151.779 main 377 377 P_____P_P___P_ SH321997 -13.8075 151.757 60 0 -13.8499 151.765 30 52 982 268 -13.8424 151.830 57 977 -13.8499 151.765 TC 57 982 8 231
1997062S16158 1997 22 SP EA JUSTIN 1997-03-20 00:00:00 TS -14.1000 151.425 50 985 bom main 395 395 O_____O_O___O_ jtwc_sh SH321997 -14.1000 151.400 55 0 -14.1000 151.400 30 50 985 3.00000 268 -14.1000 151.500 55 980 -14.1000 151.400 TC 55 985 9 234
1997062S16158 1997 22 SP EA JUSTIN 1997-03-20 03:00:00 TS -14.3668 151.038 main 419 417 P_____P_P___P_ SH321997 -14.3649 151.057 55 0 -14.3649 151.015 30 50 985 268 -14.3726 151.065 52 982 -14.3649 151.015 TC 55 985 9 237
1997062S16158 1997 22 SP EA JUSTIN 1997-03-20 06:00:00 TS -14.6000 150.625 50 985 bom main 437 436 O_____O_O___O_ jtwc_sh SH321997 -14.6000 150.700 55 0 -14.6000 150.600 30 50 985 3.00000 268 -14.6000 150.600 50 985 -14.6000 150.600 TC 55 985 9 244
1997062S16158 1997 22 SP EA JUSTIN 1997-03-20 09:00:00 TS -14.7650 150.202 main 459 459 P_____P_P___P_ SH321997 -14.8225 150.307 52 0 -14.7650 150.150 30 47 987 263 -14.7073 150.200 47 986 -14.7650 150.150 TC 50 987 9 250
1997062S16158 1997 22 SP EA JUSTIN 1997-03-20 12:00:00 TS -14.9000 149.775 45 990 bom main 472 429 O_____O_O___O_ jtwc_sh SH321997 -15.0000 149.900 50 0 -14.9000 149.700 30 45 990 3.00000 259 -14.8000 149.800 45 987 -14.9000 149.700 TC 45 990 9 250
1997062S16158 1997 22 SP EA JUSTIN 1997-03-20 15:00:00 TS -15.0593 149.357 main 429 386 P_____P_P___P_ SH321997 -15.1225 149.492 50 0 -15.0574 149.292 30 40 991 250 -15.0000 149.350 45 987 -15.0574 149.292 TC 45 991 9 249
1997062S16158 1997 22 SP EA JUSTIN 1997-03-20 18:00:00 TS -15.2000 148.950 35 992 bom main 386 343 O_____O_O___O_ jtwc_sh SH321997 -15.2000 149.100 50 0 -15.2000 148.900 30 35 992 2.50000 241 -15.2000 148.900 45 987 -15.2000 148.900 TC 45 992 8 253
1997062S16158 1997 22 SP EA JUSTIN 1997-03-20 21:00:00 TS -15.2968 148.555 main 343 299 P_____P_P___P_ SH321997 -15.2499 148.735 50 0 -15.3074 148.500 30 35 993 281 -15.3224 148.485 45 987 -15.3074 148.500 TC 42 993 8 257
1997062S16158 1997 22 SP EA JUSTIN 1997-03-21 00:00:00 TS -15.3750 148.175 35 995 bom main 299 257 O_____O_O___O_ jtwc_sh SH321997 -15.3000 148.400 50 0 -15.4000 148.100 30 35 995 2.50000 322 1012 -15.4000 148.100 45 987 -15.4000 148.100 TC 40 995 8 258
1997062S16158 1997 22 SP EA JUSTIN 1997-03-21 03:00:00 TS -15.4532 147.775 main 255 224 P_____P_P___P_ SH321997 -15.3850 148.085 50 0 -15.4851 147.655 30 35 995 308 -15.4575 147.705 45 987 -15.4851 147.655 TC 40 995 7 256
1997062S16158 1997 22 SP EA JUSTIN 1997-03-21 06:00:00 TS -15.5500 147.450 35 995 bom main 224 197 O_____O_O___O_ jtwc_sh SH321997 -15.5000 147.800 50 0 -15.6000 147.300 30 35 995 2.50000 295 -15.5000 147.400 45 987 -15.6000 147.300 TC 40 995 5 245
1997062S16158 1997 22 SP EA JUSTIN 1997-03-21 09:00:00 TS -15.6717 147.294 main 197 184 P_____P_P___P_ SH321997 -15.6274 147.550 50 0 -15.7773 147.170 30 40 996 281 -15.5049 147.285 45 987 -15.7773 147.170 TC 37 996 4 221
1997062S16158 1997 22 SP EA JUSTIN 1997-03-21 12:00:00 TS -15.8500 147.175 45 997 bom main 184 154 O_____O_O___O_ jtwc_sh SH321997 -15.8000 147.300 50 0 -16.0000 147.100 30 45 997 3.00000 268 -15.6000 147.200 45 987 -16.0000 147.100 TC 35 997 5 215
1997062S16158 1997 22 SP EA JUSTIN 1997-03-21 15:00:00 TS -16.1193 146.973 main 154 108 P_____P_P___P_ SH321997 -16.0350 147.015 50 0 -16.2649 146.938 30 47 996 322 -15.9124 147.003 45 987 -16.2649 146.938 TC 37 996 7 220
1997062S16158 1997 22 SP EA JUSTIN 1997-03-21 18:00:00 TS -16.4000 146.700 50 995 bom main 108 69 O_____O_O___O_ jtwc_sh SH321997 -16.3000 146.700 50 0 -16.5000 146.700 30 50 995 3.50000 376 -16.3000 146.700 45 987 -16.5000 146.700 TC 40 995 8 231
1997062S16158 1997 22 SP EA JUSTIN 1997-03-21 21:00:00 TS -16.6178 146.339 main 61 24 P_____P_P___P_ SH321997 -16.5725 146.358 52 0 -16.6237 146.369 30 52 994 376 -16.6527 146.258 45 987 -16.6225 146.372 TC 40 994 8 242
1997062S16158 1997 22 SP EA JUSTIN 1997-03-22 00:00:00 TS -16.7750 145.950 55 993 bom main 24 0 O_____O_O___O_ jtwc_sh SH321997 -16.8000 146.000 55 0 -16.7000 146.000 30 55 993 3.50000 376 1012 -16.9000 145.800 45 987 -16.7000 146.000 TC 40 993 8 251
1997062S16158 1997 22 SP EA JUSTIN 1997-03-22 03:00:00 TS -16.8646 145.590 main 0 0 P_____P_P___P_ SH321997 -16.9300 145.627 52 0 -16.7835 145.658 30 55 990 376 -16.9374 145.455 42 988 -16.8076 145.620 TC 40 994 7 256
1997062S16158 1997 22 SP EA JUSTIN 1997-03-22 03:30:00 TS -16.8752 145.533 55 990 bom main 0 0 P_____O_P___P_ SH321997 -16.9445 145.568 52 0 -16.8000 145.600 30 55 990 4.00000 376 -16.9317 145.406 42 988 -16.8247 145.560 TC 40 994 6 259
1997062S16158 1997 22 SP EA JUSTIN 1997-03-22 06:00:00 TS -16.9250 145.275 40 995 bom main 0 0 O_____O_O___O_ jtwc_sh SH321997 -17.0000 145.300 50 0 -16.9000 145.300 30 40 995 376 -16.9000 145.200 40 990 -16.9000 145.300 TC 40 995 5 259
1997062S16158 1997 22 SP EA JUSTIN 1997-03-22 09:00:00 TS -16.9587 145.071 main 0 0 P_____P_P___P_ SH321997 -17.0349 145.062 47 0 -16.9452 145.098 30 37 997 362 -16.9199 145.012 37 993 -16.9349 145.112 TC 35 997 3 252
1997062S16158 1997 22 SP EA JUSTIN 1997-03-22 12:00:00 TS -17.0250 144.950 35 999 bom main 0 0 O_____O_O___O_ jtwc_sh SH321997 -17.1000 144.900 45 0 -17.0000 145.000 21 35 999 349 -17.0000 144.900 35 997 -17.0000 145.000 TC 30 999 3 222
1997062S16158 1997 22 SP EA JUSTIN 1997-03-22 15:00:00 TS -17.2119 144.829 main 0 0 P_____P_P___P_ SH321997 -17.2775 144.755 42 0 -17.1925 144.870 21 35 999 295 -17.1850 144.820 35 998 -17.1925 144.870 TC 30 999 4 203
1997062S16158 1997 22 SP EA JUSTIN 1997-03-22 18:00:00 TS -17.4250 144.775 35 1000 bom main 0 0 O_____O_O___O_ jtwc_sh SH321997 -17.5000 144.700 40 0 -17.4000 144.800 21 35 1000 241 -17.4000 144.800 35 1000 -17.4000 144.800 TC 30 1000 4 187
1997062S16158 1997 22 SP EA JUSTIN 1997-03-22 21:00:00 TS -17.5589 144.786 main 0 0 P_____P_P___P_ SH321997 -17.7000 144.755 40 0 -17.4924 144.790 21 35 1001 227 -17.5507 144.809 35 1000 -17.4924 144.790 TC 27 1001 3 157
1997062S16158 1997 22 SP EA JUSTIN 1997-03-23 00:00:00 TS -17.7000 144.900 35 1002 bom main 0 0 O_____O_O___O_ jtwc_sh SH321997 -17.9000 144.900 40 0 -17.6000 144.900 21 35 1002 214 1012 -17.7000 144.900 35 1000 -17.6000 144.900 TC 25 1002 5 138
1997062S16158 1997 22 SP EA JUSTIN 1997-03-23 03:00:00 TS -17.9153 145.123 main 0 0 P_____P_P___P_ SH321997 -18.0998 145.048 40 0 -17.8276 145.177 21 35 1001 214 -17.9059 145.091 33 1000 -17.8276 145.177 TC 25 1001 7 133
1997062S16158 1997 22 SP EA JUSTIN 1997-03-23 06:00:00 TS -18.1600 145.419 35 1000 bom main 0 0 O_____O_P___O_ jtwc_sh SH321997 -18.3000 145.300 40 0 -18.1000 145.500 21 35 1000 214 -18.1399 145.377 32 1000 -18.1000 145.500 TC 25 1000 7 131
1997062S16158 1997 22 SP EA JUSTIN 1997-03-23 09:00:00 TS -18.3984 145.702 main 0 0 P_____P_P___P_ SH321997 -18.5001 145.712 42 0 -18.3573 145.685 21 37 999 214 -18.3789 145.724 31 1000 -18.3573 145.685 TC 25 999 7 129
1997062S16158 1997 22 SP EA JUSTIN 1997-03-23 12:00:00 TS -18.6250 146.025 40 999 bom main 0 0 O_____O_O___O_ jtwc_sh SH321997 -18.7000 146.200 45 0 -18.6000 145.900 21 40 999 214 -18.6000 146.100 30 1000 -18.6000 145.900 TC 25 999 8 122
1997062S16158 1997 22 SP EA JUSTIN 1997-03-23 15:00:00 TS -18.8267 146.421 main 10 10 P_____P_P___P_ SH321997 -18.9000 146.665 45 0 -18.8206 146.277 21 42 999 254 -18.7635 146.458 30 1000 -18.8227 146.285 TC 27 999 9 116
1997062S16158 1997 22 SP EA JUSTIN 1997-03-23 18:00:00 TS -19.0019 146.834 45 999 bom main 22 22 O_____O_P___O_ jtwc_sh SH321997 -19.1000 147.100 45 0 -19.0000 146.700 30 45 999 2.50000 295 -18.9075 146.836 30 1000 -19.0000 146.700 TC 30 999 8 113
1997062S16158 1997 22 SP EA JUSTIN 1997-03-23 21:00:00 TS -19.1404 147.193 main 30 22 P_____P_P___P_ SH321997 -19.3074 147.473 45 0 -19.0832 147.007 30 42 1001 246 -19.0478 147.220 30 1000 -19.1174 147.030 TC 25 1001 8 113
1997062S16158 1997 22 SP EA JUSTIN 1997-03-23 23:00:00 TS -19.2495 147.450 40 1004 bom main 24 15 P_____O_P___P_ SH321997 -19.4390 147.694 45 0 -19.2000 147.300 30 40 1004 2.50000 214 -19.1470 147.475 30 1000 -19.1742 147.213 TC 21 1003 9 115
1997062S16158 1997 22 SP EA JUSTIN 1997-03-24 00:00:00 TS -19.3231 147.608 40 998 bom main 23 23 O_____O_O___O_ jtwc_sh SH321997 -19.5000 147.800 45 0 -19.3000 147.500 30 40 998 2.50000 1012 -19.2000 147.600 30 1000 -19.2000 147.300 TC 20 1004 9 118
1997062S16158 1997 22 SP EA JUSTIN 1997-03-24 03:00:00 NR -19.5137 147.984 main 39 33 P_____P_P_____ SH321997 -19.6574 148.100 45 0 -19.4782 147.906 30 40 998 -19.4055 147.945 30 1000 TC 7 118
1997062S16158 1997 22 SP EA JUSTIN 1997-03-24 06:00:00 NR -19.6740 148.295 40 998 bom main 33 30 O_____O_P_____ jtwc_sh SH321997 -19.8000 148.400 45 0 -19.6000 148.200 30 40 998 2.50000 -19.6219 148.285 30 1000 8 119
1997062S16158 1997 22 SP EA JUSTIN 1997-03-24 09:00:00 NR -19.8758 148.680 main 35 30 P_____P_P_____ SH321997 -19.9425 148.750 40 0 -19.8576 148.657 30 37 998 -19.8273 148.632 30 1000 8 118
1997062S16158 1997 22 SP EA JUSTIN 1997-03-24 12:00:00 NR -20.0667 149.067 35 999 bom main 38 38 O_____O_O_____ jtwc_sh SH321997 -20.1000 149.100 35 0 -20.1000 149.100 30 35 999 2.50000 -20.0000 149.000 30 1000 8 116
1997062S16158 1997 22 SP EA JUSTIN 1997-03-24 15:00:00 NR -20.2093 149.395 main 61 61 P_____P_P_____ SH321997 -20.3074 149.400 35 0 -20.2222 149.400 30 32 999 -20.0983 149.384 30 999 7 112
1997062S16158 1997 22 SP EA JUSTIN 1997-03-24 18:00:00 NR -20.3214 149.730 30 1000 bom main 86 86 O_____O_P_____ jtwc_sh SH321997 -20.5000 149.700 35 0 -20.3000 149.700 20 30 1000 2.50000 -20.1643 149.791 30 998 7 107
1997062S16158 1997 22 SP EA JUSTIN 1997-03-24 21:00:00 NR -20.4152 150.135 main 121 121 P_____P_P_____ SH321997 -20.6225 150.043 35 0 -20.4001 150.135 20 30 1000 -20.2231 150.228 30 997 8 103
1997062S16158 1997 22 SP EA JUSTIN 1997-03-25 00:00:00 NR -20.5000 150.564 30 1000 bom main 160 160 O_____O_O_____ jtwc_sh SH321997 -20.7000 150.400 35 0 -20.5000 150.600 20 30 1000 2.50000 1012 -20.3000 150.700 30 997 9 103
1997062S16158 1997 22 SP EA JUSTIN 1997-03-25 03:00:00 NR -20.6175 151.037 main 195 195 P_____P_P_____ SH321997 -20.7650 150.765 35 0 -20.6000 151.017 20 27 1001 -20.4787 151.318 30 997 9 105
1997062S16158 1997 22 SP EA JUSTIN 1997-03-25 06:00:00 NR -20.7309 151.514 25 1002 bom main 207 201 O_____O_P_____ jtwc_sh SH321997 -20.8000 151.100 35 0 -20.7000 151.400 20 25 1002 2.00000 -20.6696 151.956 30 997 9 103
1997062S16158 1997 22 SP EA JUSTIN 1997-03-25 09:00:00 NR -20.8164 151.948 main 217 217 P_______P_____ SH321997 -20.8074 151.380 35 0 20 -20.8255 152.516 30 997 7 100
1997062S16158 1997 22 SP EA JUSTIN 1997-03-25 12:00:00 NR -20.8500 152.250 main 243 235 O_______O_____ jtwc_sh SH321997 -20.8000 151.600 35 0 -20.9000 152.900 30 997 4 92
1997062S16158 1997 22 SP EA JUSTIN 1997-03-25 15:00:00 NR -20.8292 152.376 main 250 250 P_______P_____ SH321997 -20.8149 151.765 35 0 -20.8434 152.987 30 997 2 54
1997062S16158 1997 22 SP EA JUSTIN 1997-03-25 18:00:00 NR -20.7520 152.398 main 250 250 O_______P_____ jtwc_sh SH321997 -20.8000 151.900 35 0 -20.7041 152.895 30 997 2 7
1997062S16158 1997 22 SP EA JUSTIN 1997-03-25 21:00:00 NR -20.6176 152.382 main 267 267 P_______P_____ SH321997 -20.7225 152.058 32 -1 -20.5127 152.706 30 997 3 354
1997062S16158 1997 22 SP EA JUSTIN 1997-03-26 00:00:00 NR -20.4500 152.350 main 284 275 O_______O_____ jtwc_sh SH321997 -20.6000 152.200 30 -1 -20.3000 152.500 30 997 3 0
1997062S16158 1997 22 SP EA JUSTIN 1997-03-26 03:00:00 NR -20.2879 152.379 main 293 293 P_______P_____ SH321997 -20.4575 152.345 30 -1 -20.1184 152.412 30 997 3 0
1997062S16158 1997 22 SP EA JUSTIN 1997-03-26 06:00:00 NR -20.1112 152.361 main 311 305 O_______P_____ jtwc_sh SH321997 -20.3000 152.400 30 -1 -19.9224 152.323 30 997 4 343
1997062S16158 1997 22 SP EA JUSTIN 1997-03-26 09:00:00 NR -19.9288 152.262 main 325 319 P_______P_____ SH321997 -20.1425 152.302 30 -1 -19.7152 152.222 30 997 4 326
1997062S16158 1997 22 SP EA JUSTIN 1997-03-26 12:00:00 NR -19.7500 152.100 main 335 327 O_______O_____ jtwc_sh SH321997 -20.0000 152.100 30 -1 -19.5000 152.100 30 997 5 314
1997062S16158 1997 22 SP EA JUSTIN 1997-03-26 15:00:00 NR -19.6013 151.904 main 327 313 P_______P_____ SH321997 -19.9000 151.865 30 -1 -19.3025 151.943 30 997 5 308
1997062S16158 1997 22 SP EA JUSTIN 1997-03-26 18:00:00 NR -19.4475 151.683 main 317 298 O_______P_____ jtwc_sh SH321997 -19.8000 151.600 30 -1 -19.0951 151.765 30 997 5 307
1997062S16158 1997 22 SP EA JUSTIN 1997-03-26 21:00:00 NR -19.2800 151.454 main 303 289 P_______P_____ SH321997 -19.6950 151.328 30 -1 -18.8650 151.580 30 997 6 314
1997062S16158 1997 22 SP EA JUSTIN 1997-03-27 00:00:00 NR -19.0500 151.250 main 299 290 O_______O_____ jtwc_sh SH321997 -19.5000 151.100 30 -1 -18.6000 151.400 30 997 6 332
1997062S16158 1997 22 SP EA JUSTIN 1997-03-27 03:00:00 NR -18.7288 151.140 main 300 300 P_______P_____ SH321997 -19.1598 151.008 30 -1 -18.2978 151.272 30 997 8 343
1997062S16158 1997 22 SP EA JUSTIN 1997-03-27 06:00:00 NR -18.3298 151.023 main 321 321 O_______P_____ jtwc_sh SH321997 -18.7000 150.900 30 -1 -17.9595 151.146 30 997 9 340
1997062S16158 1997 22 SP EA JUSTIN 1997-03-27 09:00:00 NR -17.8821 150.806 main 340 340 P_______P_____ SH321997 -18.1726 150.615 30 -1 -17.5915 150.997 30 997 10 334
1997062S16158 1997 22 SP EA JUSTIN 1997-03-27 12:00:00 NR -17.4000 150.550 main 375 370 O_______O_____ jtwc_sh SH321997 -17.6000 150.300 30 -1 -17.2000 150.800 30 997 11 334
1997062S16158 1997 22 SP EA JUSTIN 1997-03-27 15:00:00 NR -16.9158 150.303 main 405 405 P_______P_____ SH321997 -17.0350 150.078 30 -1 -16.7967 150.529 30 997 11 334
1997062S16158 1997 22 SP EA JUSTIN 1997-03-27 18:00:00 NR -16.4363 150.055 main 440 420 O_______P_____ jtwc_sh SH321997 -16.5000 149.900 30 -1 -16.3726 150.210 30 997 11 333
1997062S16158 1997 22 SP EA JUSTIN 1997-03-27 21:00:00 NR -15.9861 149.802 main 424 418 P_______P_____ SH321997 -16.0350 149.743 27 -1 -15.9372 149.861 30 997 10 331
1997062S16158 1997 22 SP EA JUSTIN 1997-03-28 00:00:00 NR -15.5500 149.550 main 429 414 O_______O_____ jtwc_sh SH321997 -15.6000 149.600 25 -1 -15.5000 149.500 30 997 10 330
1997062S16158 1997 22 SP EA JUSTIN 1997-03-28 03:00:00 NR -15.1183 149.290 main 419 399 P_______P_____ SH321997 -15.1575 149.435 25 -1 -15.0791 149.145 30 997 10 331
1997062S16158 1997 22 SP EA JUSTIN 1997-03-28 06:00:00 NR -14.6788 149.043 main 392 386 O_______P_____ jtwc_sh SH321997 -14.7000 149.300 25 -1 -14.6575 148.785 30 997 10 334
1997062S16158 1997 22 SP EA JUSTIN 1997-03-28 09:00:00 NR -14.2273 148.849 main 385 381 P_______P_____ SH321997 -14.2224 149.265 25 -1 -14.2322 148.433 30 997 10 338
1997062S16158 1997 22 SP EA JUSTIN 1997-03-28 12:00:00 NR -13.7500 148.650 main 370 331 O_______O_____ jtwc_sh SH321997 -13.7000 149.200 25 -1 -13.8000 148.100 30 997 11 337
1997062S16158 1997 22 SP EA JUSTIN 1997-03-28 15:00:00 NR -13.2181 148.411 main 331 280 P_______P_____ SH321997 -13.0774 149.025 22 -1 -13.3588 147.796 30 997 12 338
1997062S16158 1997 22 SP EA JUSTIN 1997-03-28 18:00:00 NR -12.6758 148.193 main 280 224 O_______P_____ jtwc_sh SH321997 -12.5000 148.700 20 -1 -12.9101 147.517 30 997 11 333
1997062S16158 1997 22 SP EA JUSTIN 1997-03-28 21:00:00 NR -12.2172 147.881 main 224 195 P_______P_____ SH321997 -12.0976 148.195 20 -1 -12.4564 147.254 30 997 11 320
1997062S16158 1997 22 SP EA JUSTIN 1997-03-29 00:00:00 NR -11.8400 147.480 main 187 169 O_______O_____ jtwc_sh SH321997 -11.8000 147.600 20 -1 -12.0000 147.000 30 997 11 311
1997062S16158 1997 22 SP EA JUSTIN 1997-03-29 03:00:00 NR -11.5274 147.058 main 169 169 P_____________ SH321997 -11.5274 147.058 17 -1 11 299
1997062S16158 1997 22 SP EA JUSTIN 1997-03-29 06:00:00 NR -11.3000 146.500 main 187 187 O_____________ jtwc_sh SH321997 -11.3000 146.500 15 -1 12 291
1997062S16158 1997 22 SP EA JUSTIN 1997-03-29 09:00:00 NR -11.0953 145.910 main 222 222 P_____________ SH321997 -11.0953 145.910 20 -1 12 289
1997062S16158 1997 22 SP EA JUSTIN 1997-03-29 12:00:00 NR -10.9000 145.300 main 250 O_____________ jtwc_sh SH321997 -10.9000 145.300 25 -1 13 288

デジタル台風データ・検索

IBTrACS Databaseについて

本データベースは、米国NOAAが公開する1842年以降の世界の熱帯低気圧のベストトラックデータアーカイブInternational Best Track Archive for Climate Stewardship (IBTrACS)を、ウェブで閲覧しやすい形式に変換したものです。

最終更新日:2021-12-08